الصفحة الرئيسية
METAR-TAF:

METAR-TAF

مطار :

لانكاوي, ماليزيا

دائرة عرض: 06-20N, خط طول: 099-44E, ارتفاع: 8 متر

مراقبة الطقس الحالي

تاريخ ووقت الإصدار 49 دقيقة قبل الساعة 21:00UTC
رياح هادئة
درجة الحرارة 27°درجة مئوية
الرطوبة 89%
ضغط 1009 hPa
الرؤية 10 كم أو أكثر
غيوم قليلة على ارتفاع 2600 قدم

METAR: WMKL 252100Z 00000KT 9999 FEW026 27/25 Q1009

زمن: 05:49 (21:49 UTC)

توقعات

تاريخ ووقت الإصدار 4ساعات و 49 دقيقة قبل الساعة 17:00UTC
التوقعات صالحة من25 الساعة 18 UTC إلى 26 الساعة 18 UTC
ريح 3 عقدةمن اتجاهات متغيرة
الرؤية 10 كم أو أكثر
غيوم قليلة على ارتفاع 2600 قدم
أصبح
من 26 الساعة 04 UTC إلى 26 الساعة 06 UTC
ريح 5 عقدة من الجنوب الغربي
غيوم قليلة على ارتفاع 2200 قدم

TAF: WMKL 251700Z 2518/2618 VRB03KT 9999 FEW026 BECMG 2604/2606 23005KT FEW022

أرصاد الطقس والتوقعات من أكثر من 4000 مطار (تقارير الطقس للمطار METAR والتنبؤ بالطقس بالمطارTAF).

المحطات المتاحة هي النقط الصفراء والحمراء على الخريطة.

حرك المؤشر فوق النقطة لمعرفة اسم المحطة.

ثم انقر لمعرفة أرصاد وتوقعات الطقس.

لتغيير الخارطة: اضغط على الأزرار الخضراء مع رمز الصليب الأسود للتكبير. على الزر الأخضر مع شرطة للتصغير، أو على الأسهم الخضراء للخرائط المجاورة.


METAR-TAF: